createdAt,value
2024-01-24T00:01:39.123Z,11
2024-01-24T00:04:39.120Z,15
2024-01-24T00:06:39.261Z,12
2024-01-24T00:09:39.294Z,16
2024-01-24T00:11:39.115Z,12
2024-01-24T00:13:39.063Z,12
2024-01-24T00:15:39.244Z,14
2024-01-24T00:18:39.139Z,10
2024-01-24T00:21:39.118Z,13
2024-01-24T00:24:39.126Z,18
2024-01-24T00:27:39.100Z,14
2024-01-24T00:30:39.093Z,15
2024-01-24T00:32:39.179Z,16
2024-01-24T00:35:39.367Z,14
2024-01-24T00:37:39.624Z,12
2024-01-24T00:40:39.101Z,16
2024-01-24T00:42:39.194Z,13
2024-01-24T00:45:39.123Z,11
2024-01-24T00:47:39.219Z,15
2024-01-24T00:50:39.079Z,15
2024-01-24T00:53:39.112Z,18
2024-01-24T00:56:39.073Z,12
2024-01-24T00:58:39.068Z,16
2024-01-24T01:00:39.218Z,16
2024-01-24T01:03:39.161Z,16
2024-01-24T01:05:39.134Z,19
2024-01-24T01:08:39.101Z,17
2024-01-24T01:11:39.071Z,14
2024-01-24T01:13:39.079Z,12
2024-01-24T01:16:39.106Z,16
2024-01-24T01:18:39.117Z,13
2024-01-24T01:21:39.107Z,12
2024-01-24T01:23:39.072Z,15
2024-01-24T01:26:39.063Z,14
2024-01-24T01:29:39.067Z,12
2024-01-24T01:32:39.187Z,13
2024-01-24T01:34:39.133Z,14
2024-01-24T01:37:39.083Z,9
2024-01-24T01:40:39.071Z,11
2024-01-24T01:42:39.110Z,14
2024-01-24T01:45:39.103Z,12
2024-01-24T01:47:39.203Z,14
2024-01-24T01:50:39.050Z,12
2024-01-24T01:52:39.079Z,13
2024-01-24T01:55:39.064Z,15
2024-01-24T01:58:39.146Z,14
2024-01-24T02:01:39.116Z,12
2024-01-24T02:04:39.074Z,14
2024-01-24T02:06:39.265Z,12
2024-01-24T02:08:39.318Z,15
2024-01-24T02:11:39.147Z,11
2024-01-24T02:13:39.103Z,13
2024-01-24T02:15:39.130Z,16
2024-01-24T02:18:39.143Z,12
2024-01-24T02:20:39.147Z,9
2024-01-24T02:23:39.104Z,15
2024-01-24T02:25:39.086Z,11
2024-01-24T02:28:39.106Z,16
2024-01-24T02:30:39.147Z,16
2024-01-24T02:32:39.180Z,13
2024-01-24T02:35:39.080Z,11
2024-01-24T02:37:39.083Z,14
2024-01-24T02:39:39.113Z,13
2024-01-24T02:41:39.092Z,10
2024-01-24T02:44:39.144Z,13
2024-01-24T02:47:39.062Z,11
2024-01-24T02:49:39.208Z,10
2024-01-24T02:52:39.068Z,12
2024-01-24T02:54:39.151Z,12
2024-01-24T02:57:39.114Z,13
2024-01-24T02:59:39.111Z,10
2024-01-24T03:02:39.085Z,10
2024-01-24T03:04:39.248Z,11
2024-01-24T03:07:39.249Z,10
2024-01-24T03:10:39.098Z,9
2024-01-24T03:12:39.162Z,11
2024-01-24T03:15:39.096Z,10
2024-01-24T03:18:39.147Z,8
2024-01-24T03:20:39.089Z,10
2024-01-24T03:23:39.113Z,9
2024-01-24T03:27:39.145Z,9
2024-01-24T03:30:39.119Z,9
2024-01-24T03:33:39.176Z,10
2024-01-24T03:36:39.117Z,12
2024-01-24T03:39:39.100Z,10
2024-01-24T03:41:39.086Z,9
2024-01-24T03:44:39.091Z,8
2024-01-24T03:50:39.142Z,8
2024-01-24T03:53:39.101Z,10
2024-01-24T03:55:39.168Z,10
2024-01-24T03:58:39.069Z,8
2024-01-24T04:00:39.246Z,7
2024-01-24T04:03:39.122Z,9
2024-01-24T04:06:39.175Z,10
2024-01-24T04:09:39.088Z,8
2024-01-24T04:11:39.151Z,10
2024-01-24T04:14:39.095Z,8
2024-01-24T04:16:39.092Z,9
2024-01-24T04:19:39.155Z,8
2024-01-24T04:21:39.185Z,8
2024-01-24T04:24:39.123Z,7
2024-01-24T04:26:39.127Z,7
2024-01-24T04:29:39.096Z,8
2024-01-24T04:32:39.161Z,13
2024-01-24T04:34:39.195Z,8
2024-01-24T04:37:39.130Z,8
2024-01-24T04:40:39.100Z,9
2024-01-24T04:43:39.114Z,8
2024-01-24T04:46:39.062Z,7
2024-01-24T04:48:39.161Z,7
2024-01-24T04:51:39.104Z,6
2024-01-24T04:53:39.098Z,7
2024-01-24T04:56:39.141Z,7
2024-01-24T04:58:39.105Z,7
2024-01-24T05:01:39.111Z,7
2024-01-24T05:03:39.169Z,7
2024-01-24T05:06:39.174Z,6
2024-01-24T05:08:39.117Z,6
2024-01-24T05:10:39.122Z,6
2024-01-24T05:13:39.171Z,5
2024-01-24T05:16:39.080Z,5
2024-01-24T05:18:39.219Z,5
2024-01-24T05:20:39.082Z,5
2024-01-24T05:23:39.101Z,6
2024-01-24T05:25:39.111Z,6
2024-01-24T05:28:39.125Z,6
2024-01-24T05:30:39.493Z,5
2024-01-24T05:33:39.200Z,6
2024-01-24T05:35:39.089Z,6
2024-01-24T05:38:39.149Z,5
2024-01-24T05:41:39.122Z,4
2024-01-24T05:44:39.079Z,4
2024-01-24T05:47:39.147Z,5
2024-01-24T05:50:39.073Z,4
2024-01-24T05:52:40.599Z,5
2024-01-24T05:54:39.142Z,5
2024-01-24T05:57:39.169Z,5
2024-01-24T06:00:39.255Z,5
2024-01-24T06:02:39.141Z,4
2024-01-24T06:05:39.210Z,4
2024-01-24T06:07:39.205Z,5
2024-01-24T06:10:39.098Z,4
2024-01-24T06:13:39.111Z,4
2024-01-24T06:16:39.248Z,5
2024-01-24T06:18:39.146Z,4
2024-01-24T06:20:39.110Z,5
2024-01-24T06:23:39.128Z,4
2024-01-24T06:25:39.108Z,4
2024-01-24T06:27:39.159Z,4
2024-01-24T06:30:39.135Z,5
2024-01-24T06:32:39.112Z,3
2024-01-24T06:34:39.139Z,4
2024-01-24T06:36:39.166Z,4
2024-01-24T06:39:39.132Z,3
2024-01-24T06:41:39.171Z,5
2024-01-24T06:44:39.098Z,4
2024-01-24T06:46:39.113Z,5
2024-01-24T06:48:39.154Z,4
2024-01-24T06:51:39.103Z,5
2024-01-24T06:54:39.139Z,4
2024-01-24T06:57:39.144Z,6
2024-01-24T06:59:39.097Z,4
2024-01-24T07:02:39.117Z,4
2024-01-24T07:05:39.116Z,5
2024-01-24T07:07:39.118Z,4
2024-01-24T07:09:39.163Z,4
2024-01-24T07:11:39.102Z,4
2024-01-24T07:14:39.103Z,5
2024-01-24T07:17:39.163Z,4
2024-01-24T07:19:39.130Z,4
2024-01-24T07:22:39.115Z,5
2024-01-24T07:24:39.158Z,5
2024-01-24T07:27:39.177Z,4
2024-01-24T07:30:39.135Z,5
2024-01-24T07:33:39.173Z,4
2024-01-24T07:35:39.102Z,4
2024-01-24T07:38:39.122Z,4
2024-01-24T07:41:39.108Z,4
2024-01-24T07:43:39.113Z,4
2024-01-24T07:46:39.100Z,5
2024-01-24T07:49:39.287Z,4
2024-01-24T07:51:39.176Z,5
2024-01-24T07:54:39.143Z,4
2024-01-24T07:57:39.221Z,4
2024-01-24T07:59:39.084Z,4
2024-01-24T08:01:39.153Z,4
2024-01-24T08:03:39.234Z,4
2024-01-24T08:06:39.198Z,3
2024-01-24T08:08:39.120Z,4
2024-01-24T08:11:39.118Z,6
2024-01-24T08:13:39.103Z,3
2024-01-24T08:16:39.102Z,4
2024-01-24T08:18:39.172Z,4
2024-01-24T08:20:39.142Z,4
2024-01-24T08:23:46.460Z,4
2024-01-24T08:25:39.154Z,4
2024-01-24T08:28:39.094Z,3
2024-01-24T08:31:39.087Z,4
2024-01-24T08:33:39.224Z,4
2024-01-24T08:36:39.103Z,4
2024-01-24T08:38:39.132Z,4
2024-01-24T08:40:39.101Z,5
2024-01-24T08:42:39.268Z,4
2024-01-24T08:45:39.152Z,5
2024-01-24T08:48:39.170Z,5
2024-01-24T08:50:39.140Z,5
2024-01-24T08:53:39.127Z,5
2024-01-24T08:56:39.104Z,5
2024-01-24T08:59:39.101Z,5
2024-01-24T09:02:39.130Z,5
2024-01-24T09:05:39.135Z,5
2024-01-24T09:07:39.384Z,4
2024-01-24T09:10:39.138Z,5
2024-01-24T09:12:39.172Z,6
2024-01-24T09:15:39.196Z,5
2024-01-24T09:18:39.253Z,6
2024-01-24T09:21:39.171Z,6
2024-01-24T09:24:39.179Z,5
2024-01-24T09:26:39.099Z,7
2024-01-24T09:28:39.096Z,6
2024-01-24T09:30:39.118Z,6
2024-01-24T09:33:40.077Z,7
2024-01-24T09:35:39.295Z,6
2024-01-24T09:38:39.109Z,6
2024-01-24T09:41:39.137Z,9
2024-01-24T09:43:39.158Z,5
2024-01-24T09:46:39.110Z,9
2024-01-24T09:48:39.165Z,7
2024-01-24T09:51:39.106Z,8
2024-01-24T09:53:39.154Z,7
2024-01-24T09:56:39.228Z,9
2024-01-24T09:58:39.118Z,8
2024-01-24T10:01:39.219Z,9
2024-01-24T10:04:39.437Z,8
2024-01-24T10:06:39.221Z,12
2024-01-24T10:09:39.201Z,11
2024-01-24T10:12:39.151Z,11
2024-01-24T10:15:39.124Z,9
2024-01-24T10:17:39.130Z,9
2024-01-24T10:19:39.209Z,11
2024-01-24T10:21:39.175Z,10
2024-01-24T10:23:39.101Z,11
2024-01-24T10:25:39.235Z,11
2024-01-24T10:28:39.202Z,8
2024-01-24T10:31:39.146Z,9
2024-01-24T10:34:39.143Z,12
2024-01-24T10:36:40.420Z,9
2024-01-24T10:39:39.153Z,9
2024-01-24T10:42:39.246Z,10
2024-01-24T10:45:39.143Z,10
2024-01-24T10:48:39.289Z,10
2024-01-24T10:51:39.134Z,11
2024-01-24T10:53:39.145Z,9
2024-01-24T10:55:39.481Z,11
2024-01-24T10:58:39.112Z,8
2024-01-24T11:00:39.190Z,10
2024-01-24T11:03:39.174Z,10
2024-01-24T11:05:39.178Z,8
2024-01-24T11:08:40.343Z,8
2024-01-24T11:10:39.145Z,8
2024-01-24T11:13:39.344Z,10
2024-01-24T11:15:39.145Z,8
2024-01-24T11:17:39.148Z,13
2024-01-24T11:20:39.125Z,11
2024-01-24T11:22:39.213Z,10
2024-01-24T11:25:39.119Z,9
2024-01-24T11:28:39.151Z,10
2024-01-24T11:31:39.121Z,8
2024-01-24T11:34:39.221Z,10
2024-01-24T11:37:39.154Z,10
2024-01-24T11:39:39.444Z,12
2024-01-24T11:42:39.261Z,11
2024-01-24T11:44:39.125Z,14
2024-01-24T11:46:39.169Z,11
2024-01-24T11:49:39.205Z,10
2024-01-24T11:52:39.112Z,10
2024-01-24T11:55:39.098Z,12
2024-01-24T11:57:39.170Z,9
2024-01-24T11:59:39.127Z,9
2024-01-24T12:02:39.181Z,12
2024-01-24T12:05:39.410Z,21
2024-01-24T12:08:39.152Z,11
2024-01-24T12:10:39.273Z,9
2024-01-24T12:12:39.158Z,9
2024-01-24T12:15:39.128Z,8
2024-01-24T12:17:40.118Z,9
2024-01-24T12:19:39.221Z,15
2024-01-24T12:21:39.196Z,12
2024-01-24T12:24:39.145Z,13
2024-01-24T12:26:39.813Z,15
2024-01-24T12:29:39.153Z,13
2024-01-24T12:32:39.164Z,16
2024-01-24T12:34:39.209Z,16
2024-01-24T12:36:39.147Z,14
2024-01-24T12:39:39.154Z,17
2024-01-24T12:42:39.150Z,14
2024-01-24T12:44:39.119Z,18
2024-01-24T12:46:39.137Z,19
2024-01-24T12:49:39.228Z,22
2024-01-24T12:52:39.128Z,19
2024-01-24T12:54:39.155Z,18
2024-01-24T12:57:39.194Z,23
2024-01-24T12:59:39.146Z,22
2024-01-24T13:02:39.123Z,17
2024-01-24T13:04:39.180Z,21
2024-01-24T13:07:39.277Z,18
2024-01-24T13:09:40.219Z,22
2024-01-24T13:12:39.209Z,22
2024-01-24T13:15:40.070Z,23
2024-01-24T13:18:39.202Z,20
2024-01-24T13:20:39.135Z,21
2024-01-24T13:22:39.184Z,22
2024-01-24T13:25:39.194Z,20
2024-01-24T13:28:39.142Z,16
2024-01-24T13:31:39.171Z,21
2024-01-24T13:33:40.197Z,24
2024-01-24T13:35:39.123Z,25
2024-01-24T13:37:39.354Z,25
2024-01-24T13:40:39.164Z,15
2024-01-24T13:43:39.150Z,26
2024-01-24T13:46:39.124Z,18
2024-01-24T13:48:39.302Z,19
2024-01-24T13:51:42.722Z,22
2024-01-24T13:54:39.192Z,21
2024-01-24T13:57:41.515Z,23
2024-01-24T14:00:39.199Z,21
2024-01-24T14:05:39.431Z,26
2024-01-24T14:07:39.147Z,24
2024-01-24T14:09:40.468Z,22
2024-01-24T14:11:39.193Z,30
2024-01-24T14:14:39.133Z,24
2024-01-24T14:16:39.132Z,29
2024-01-24T14:19:39.318Z,23
2024-01-24T14:21:39.144Z,25
2024-01-24T14:24:39.151Z,25
2024-01-24T14:27:39.157Z,23
2024-01-24T14:30:39.160Z,27
2024-01-24T14:32:39.159Z,24
2024-01-24T14:35:39.176Z,24
2024-01-24T14:37:39.160Z,23
2024-01-24T14:39:39.208Z,22
2024-01-24T14:41:39.143Z,24
2024-01-24T14:43:39.221Z,26
2024-01-24T14:46:39.128Z,26
2024-01-24T14:48:39.266Z,21
2024-01-24T14:50:39.185Z,28
2024-01-24T14:53:39.123Z,21
2024-01-24T14:55:39.148Z,25
2024-01-24T14:57:39.271Z,23
2024-01-24T15:00:39.275Z,28
2024-01-24T15:02:39.224Z,22
2024-01-24T15:05:39.215Z,25
2024-01-24T15:08:39.121Z,42
2024-01-24T15:10:39.193Z,30
2024-01-24T15:13:39.154Z,22
2024-01-24T15:16:39.165Z,26
2024-01-24T15:19:39.244Z,25
2024-01-24T15:21:39.188Z,16
2024-01-24T15:24:39.253Z,26
2024-01-24T15:27:39.302Z,21
2024-01-24T15:30:39.201Z,26
2024-01-24T15:32:39.228Z,22
2024-01-24T15:35:39.145Z,21
2024-01-24T15:38:39.181Z,23
2024-01-24T15:40:39.148Z,26
2024-01-24T15:43:39.335Z,23
2024-01-24T15:46:39.216Z,23
2024-01-24T15:49:39.208Z,23
2024-01-24T15:52:39.148Z,23
2024-01-24T15:54:39.178Z,24
2024-01-24T15:56:39.185Z,24
2024-01-24T15:59:39.178Z,20
2024-01-24T16:01:39.190Z,24
2024-01-24T16:04:39.236Z,22
2024-01-24T16:06:39.201Z,26
2024-01-24T16:08:39.145Z,28
2024-01-24T16:10:39.182Z,25
2024-01-24T16:13:39.120Z,23
2024-01-24T16:15:39.212Z,17
2024-01-24T16:18:39.294Z,29
2024-01-24T16:20:39.129Z,30
2024-01-24T16:22:42.994Z,22
2024-01-24T16:24:39.143Z,25
2024-01-24T16:27:39.157Z,27
2024-01-24T16:30:39.287Z,25
2024-01-24T16:32:39.149Z,21
2024-01-24T16:35:39.141Z,24
2024-01-24T16:37:39.144Z,32
2024-01-24T16:39:39.180Z,27
2024-01-24T16:42:39.194Z,25
2024-01-24T16:44:39.156Z,22
2024-01-24T16:47:39.224Z,22
2024-01-24T16:49:39.299Z,21
2024-01-24T16:51:39.179Z,25
2024-01-24T16:54:39.209Z,22
2024-01-24T16:57:39.150Z,24
2024-01-24T16:59:39.142Z,19
2024-01-24T17:01:39.203Z,21
2024-01-24T17:04:39.329Z,26
2024-01-24T17:07:39.208Z,23
2024-01-24T17:10:39.167Z,23
2024-01-24T17:13:39.159Z,27
2024-01-24T17:16:39.137Z,24
2024-01-24T17:18:39.286Z,26
2024-01-24T17:21:39.156Z,18
2024-01-24T17:23:39.160Z,24
2024-01-24T17:26:39.162Z,21
2024-01-24T17:29:39.219Z,26
2024-01-24T17:32:39.299Z,25
2024-01-24T17:34:39.320Z,31
2024-01-24T17:37:39.131Z,35
2024-01-24T17:39:39.364Z,25
2024-01-24T17:42:39.155Z,30
2024-01-24T17:44:39.142Z,29
2024-01-24T17:46:39.152Z,26
2024-01-24T17:49:39.268Z,32
2024-01-24T17:52:39.405Z,33
2024-01-24T17:54:39.265Z,26
2024-01-24T17:57:39.227Z,29
2024-01-24T18:00:39.245Z,27
2024-01-24T18:03:39.176Z,25
2024-01-24T18:06:39.235Z,25
2024-01-24T18:09:39.181Z,28
2024-01-24T18:11:39.176Z,32
2024-01-24T18:14:39.202Z,25
2024-01-24T18:17:39.264Z,21
2024-01-24T18:19:39.330Z,25
2024-01-24T18:22:39.155Z,31
2024-01-24T18:24:39.190Z,26
2024-01-24T18:27:39.185Z,30
2024-01-24T18:29:39.188Z,24
2024-01-24T18:32:39.157Z,25
2024-01-24T18:34:39.284Z,25
2024-01-24T18:37:39.151Z,29
2024-01-24T18:40:39.171Z,24
2024-01-24T18:43:39.155Z,25
2024-01-24T18:45:39.189Z,27
2024-01-24T18:47:39.351Z,23
2024-01-24T18:50:39.156Z,28
2024-01-24T18:52:39.169Z,28
2024-01-24T18:54:39.205Z,36
2024-01-24T18:56:39.223Z,28
2024-01-24T18:59:39.156Z,25
2024-01-24T19:02:39.369Z,27
2024-01-24T19:05:39.795Z,33
2024-01-24T19:07:39.220Z,34
2024-01-24T19:09:39.220Z,35
2024-01-24T19:12:39.163Z,31
2024-01-24T19:14:39.177Z,35
2024-01-24T19:17:39.185Z,31
2024-01-24T19:20:39.144Z,36
2024-01-24T19:22:39.209Z,27
2024-01-24T19:25:39.213Z,39
2024-01-24T19:28:39.157Z,34
2024-01-24T19:31:39.141Z,32
2024-01-24T19:33:39.213Z,30
2024-01-24T19:36:39.199Z,28
2024-01-24T19:39:39.230Z,46
2024-01-24T19:42:39.255Z,44
2024-01-24T19:45:39.195Z,34
2024-01-24T19:47:39.269Z,33
2024-01-24T19:50:39.156Z,32
2024-01-24T19:52:39.151Z,29
2024-01-24T19:54:39.332Z,35
2024-01-24T19:57:39.225Z,31
2024-01-24T19:59:39.161Z,28
2024-01-24T20:01:39.234Z,29
2024-01-24T20:04:39.168Z,36
2024-01-24T20:07:39.246Z,32
2024-01-24T20:10:39.247Z,29
2024-01-24T20:13:39.170Z,33
2024-01-24T20:16:39.198Z,30
2024-01-24T20:19:39.222Z,29
2024-01-24T20:22:39.164Z,25
2024-01-24T20:24:39.197Z,25
2024-01-24T20:27:39.330Z,29
2024-01-24T20:29:39.195Z,31
2024-01-24T20:31:39.200Z,32
2024-01-24T20:34:39.271Z,27
2024-01-24T20:37:39.186Z,34
2024-01-24T20:40:39.187Z,23
2024-01-24T20:43:39.242Z,30
2024-01-24T20:46:39.175Z,25
2024-01-24T20:49:39.257Z,29
2024-01-24T20:52:39.211Z,27
2024-01-24T20:55:39.176Z,31
2024-01-24T20:57:39.193Z,28
2024-01-24T21:00:39.306Z,24
2024-01-24T21:02:39.209Z,36
2024-01-24T21:05:39.191Z,36
2024-01-24T21:07:39.241Z,41
2024-01-24T21:10:40.240Z,33
2024-01-24T21:13:39.196Z,29
2024-01-24T21:16:39.148Z,31
2024-01-24T21:18:39.882Z,30
2024-01-24T21:21:39.246Z,34
2024-01-24T21:23:39.193Z,41
2024-01-24T21:25:39.220Z,34
2024-01-24T21:28:39.198Z,32
2024-01-24T21:30:39.282Z,35
2024-01-24T21:33:39.273Z,32
2024-01-24T21:35:39.235Z,33
2024-01-24T21:38:39.216Z,29
2024-01-24T21:41:39.168Z,38
2024-01-24T21:43:39.198Z,32
2024-01-24T21:46:39.170Z,38
2024-01-24T21:49:39.220Z,30
2024-01-24T21:51:39.203Z,27
2024-01-24T21:53:39.176Z,33
2024-01-24T21:55:39.163Z,39
2024-01-24T21:57:39.254Z,26
2024-01-24T22:00:39.189Z,35
2024-01-24T22:03:39.226Z,29
2024-01-24T22:06:39.366Z,31
2024-01-24T22:09:39.670Z,34
2024-01-24T22:12:39.209Z,26
2024-01-24T22:15:39.230Z,39
2024-01-24T22:17:39.211Z,35
2024-01-24T22:20:39.198Z,27
2024-01-24T22:23:39.640Z,32
2024-01-24T22:26:39.163Z,31
2024-01-24T22:28:39.231Z,30
2024-01-24T22:31:39.170Z,31
2024-01-24T22:34:39.407Z,43
2024-01-24T22:37:39.196Z,33
2024-01-24T22:40:39.176Z,32
2024-01-24T22:42:39.276Z,37
2024-01-24T22:44:39.216Z,34
2024-01-24T22:47:39.295Z,28
2024-01-24T22:50:39.223Z,34
2024-01-24T22:52:39.202Z,34
2024-01-24T22:55:39.174Z,31
2024-01-24T22:57:39.186Z,36
2024-01-24T23:00:39.307Z,29
2024-01-24T23:02:39.160Z,31
2024-01-24T23:04:39.307Z,39
2024-01-24T23:07:39.262Z,38
2024-01-24T23:10:39.172Z,36
2024-01-24T23:12:39.211Z,36
2024-01-24T23:15:39.322Z,40
2024-01-24T23:18:39.209Z,39
2024-01-24T23:21:39.196Z,37
2024-01-24T23:24:39.214Z,30
2024-01-24T23:27:39.175Z,36
2024-01-24T23:30:39.200Z,36
2024-01-24T23:32:39.235Z,32
2024-01-24T23:35:39.193Z,40
2024-01-24T23:38:39.212Z,32
2024-01-24T23:41:39.170Z,29
2024-01-24T23:44:39.165Z,32
2024-01-24T23:46:39.190Z,32
2024-01-24T23:49:39.361Z,38
2024-01-24T23:51:39.505Z,35
2024-01-24T23:54:39.204Z,35
2024-01-24T23:56:39.153Z,30
2024-01-24T23:58:39.164Z,36
